createdAt,value
2023-05-13T00:01:57.962Z,11.40
2023-05-13T00:04:25.919Z,8.90
2023-05-13T00:06:53.579Z,10.40
2023-05-13T00:09:21.553Z,10.10
2023-05-13T00:11:49.530Z,11.40
2023-05-13T00:14:17.492Z,8.20
2023-05-13T00:16:45.722Z,8.40
2023-05-13T00:19:14.178Z,7.80
2023-05-13T00:21:42.399Z,7.60
2023-05-13T00:24:10.416Z,9.40
2023-05-13T00:26:38.872Z,7.60
2023-05-13T00:29:06.948Z,8.10
2023-05-13T00:31:35.404Z,10.30
2023-05-13T00:34:04.774Z,8.00
2023-05-13T00:36:32.796Z,8.40
2023-05-13T00:39:00.967Z,10.10
2023-05-13T00:41:29.146Z,9.50
2023-05-13T00:43:57.525Z,12.70
2023-05-13T00:46:25.822Z,11.10
2023-05-13T00:48:54.426Z,7.50
2023-05-13T00:51:22.764Z,9.60
2023-05-13T00:53:51.033Z,10.30
2023-05-13T00:56:19.313Z,7.70
2023-05-13T00:58:47.381Z,8.70
2023-05-13T01:01:15.417Z,9.20
2023-05-13T01:03:43.531Z,9.20
2023-05-13T01:06:11.495Z,10.00
2023-05-13T01:08:39.563Z,8.60
2023-05-13T01:11:07.737Z,7.10
2023-05-13T01:13:37.264Z,9.00
2023-05-13T01:16:05.317Z,11.10
2023-05-13T01:18:33.527Z,12.60
2023-05-13T01:21:01.765Z,19.80
2023-05-13T01:23:29.836Z,11.80
2023-05-13T01:25:57.903Z,11.60
2023-05-13T01:28:25.872Z,12.10
2023-05-13T01:30:53.885Z,9.20
2023-05-13T01:33:21.826Z,11.10
2023-05-13T01:35:49.889Z,10.80
2023-05-13T01:38:18.063Z,8.60
2023-05-13T01:40:46.849Z,11.20
2023-05-13T01:43:14.917Z,9.50
2023-05-13T01:45:42.887Z,10.30
2023-05-13T01:48:10.864Z,12.40
2023-05-13T01:50:39.345Z,13.50
2023-05-13T01:53:07.505Z,10.30
2023-05-13T01:55:35.383Z,16.80
2023-05-13T01:58:03.357Z,10.80
2023-05-13T02:00:31.420Z,11.80
2023-05-13T02:02:59.445Z,10.90
2023-05-13T02:05:27.457Z,9.60
2023-05-13T02:07:55.219Z,11.10
2023-05-13T02:10:23.118Z,9.30
2023-05-13T02:12:51.059Z,8.90
2023-05-13T02:15:18.821Z,8.60
2023-05-13T02:17:46.488Z,10.90
2023-05-13T02:20:14.254Z,11.40
2023-05-13T02:22:42.122Z,9.60
2023-05-13T02:25:09.785Z,10.30
2023-05-13T02:27:37.543Z,9.40
2023-05-13T02:30:05.208Z,8.70
2023-05-13T02:32:32.996Z,9.60
2023-05-13T02:35:00.728Z,12.50
2023-05-13T02:37:28.408Z,10.70
2023-05-13T02:39:56.157Z,11.50
2023-05-13T02:42:23.821Z,10.40
2023-05-13T02:44:51.586Z,8.60
2023-05-13T02:47:19.245Z,10.80
2023-05-13T02:49:46.913Z,9.80
2023-05-13T02:52:14.572Z,9.90
2023-05-13T02:54:42.252Z,9.90
2023-05-13T02:57:10.203Z,9.00
2023-05-13T02:59:37.968Z,11.00
2023-05-13T03:02:05.649Z,9.20
2023-05-13T03:04:33.496Z,9.40
2023-05-13T03:07:01.157Z,9.10
2023-05-13T03:09:28.937Z,11.60
2023-05-13T03:11:56.587Z,13.30
2023-05-13T03:14:24.247Z,11.90
2023-05-13T03:16:51.904Z,11.90
2023-05-13T03:19:19.680Z,9.60
2023-05-13T03:21:47.443Z,11.40
2023-05-13T03:24:15.105Z,8.40
2023-05-13T03:26:42.763Z,10.50
2023-05-13T03:29:10.626Z,11.30
2023-05-13T03:31:38.313Z,12.80
2023-05-13T03:34:06.050Z,11.70
2023-05-13T03:36:33.916Z,14.50
2023-05-13T03:39:01.577Z,12.70
2023-05-13T03:41:29.344Z,10.30
2023-05-13T03:43:57.004Z,11.50
2023-05-13T03:46:27.554Z,12.40
2023-05-13T03:48:56.120Z,10.90
2023-05-13T03:51:23.878Z,13.80
2023-05-13T03:53:51.556Z,10.60
2023-05-13T03:56:19.208Z,12.70
2023-05-13T03:58:46.869Z,10.50
2023-05-13T04:01:14.633Z,10.70
2023-05-13T04:03:45.470Z,13.80
2023-05-13T04:06:14.666Z,12.70
2023-05-13T04:08:42.330Z,12.60
2023-05-13T04:11:09.995Z,10.80
2023-05-13T04:13:38.166Z,10.10
2023-05-13T04:16:06.135Z,9.10
2023-05-13T04:18:33.828Z,10.40
2023-05-13T04:21:01.564Z,15.40
2023-05-13T04:23:29.226Z,20.10
2023-05-13T04:25:56.993Z,17.80
2023-05-13T04:28:24.655Z,22.40
2023-05-13T04:30:52.309Z,32.10
2023-05-13T04:33:20.079Z,22.00
2023-05-13T04:35:47.740Z,14.20
2023-05-13T04:38:15.806Z,13.70
2023-05-13T04:40:43.469Z,15.30
2023-05-13T04:43:11.130Z,16.60
2023-05-13T04:45:38.994Z,14.60
2023-05-13T04:48:06.752Z,13.10
2023-05-13T04:50:34.631Z,12.80
2023-05-13T04:53:02.801Z,9.50
2023-05-13T04:55:30.565Z,11.30
2023-05-13T04:57:58.230Z,14.70
2023-05-13T05:00:25.992Z,13.30
2023-05-13T05:02:53.732Z,14.40
2023-05-13T05:05:21.624Z,10.80
2023-05-13T05:07:49.282Z,11.50
2023-05-13T05:10:17.072Z,14.60
2023-05-13T05:12:44.820Z,9.90
2023-05-13T05:15:16.145Z,9.40
2023-05-13T05:17:44.104Z,10.70
2023-05-13T05:20:12.000Z,10.90
2023-05-13T05:22:42.048Z,10.50
2023-05-13T05:25:09.992Z,12.00
2023-05-13T05:27:37.750Z,11.20
2023-05-13T05:30:05.518Z,8.70
2023-05-13T05:32:34.119Z,11.40
2023-05-13T05:35:02.582Z,11.90
2023-05-13T05:37:30.447Z,8.90
2023-05-13T05:39:58.112Z,10.00
2023-05-13T05:42:25.875Z,9.20
2023-05-13T05:44:53.748Z,9.90
2023-05-13T05:47:21.407Z,12.10
2023-05-13T05:49:49.080Z,7.40
2023-05-13T05:52:16.823Z,10.10
2023-05-13T05:54:44.499Z,11.80
2023-05-13T05:57:12.361Z,9.20
2023-05-13T05:59:40.014Z,9.70
2023-05-13T06:02:07.879Z,11.10
2023-05-13T06:04:35.796Z,9.60
2023-05-13T06:07:03.650Z,9.20
2023-05-13T06:09:31.481Z,13.70
2023-05-13T06:11:59.147Z,6.00
2023-05-13T06:14:26.807Z,7.90
2023-05-13T06:16:55.861Z,6.80
2023-05-13T06:19:23.869Z,9.60
2023-05-13T06:21:51.532Z,10.30
2023-05-13T06:24:19.301Z,7.20
2023-05-13T06:26:47.164Z,7.20
2023-05-13T06:29:15.144Z,8.20
2023-05-13T06:31:42.945Z,6.50
2023-05-13T06:34:16.715Z,7.40
2023-05-13T06:36:44.580Z,8.50
2023-05-13T06:39:12.244Z,10.10
2023-05-13T06:41:39.892Z,6.10
2023-05-13T06:44:07.663Z,12.20
2023-05-13T06:46:35.349Z,6.60
2023-05-13T06:49:03.083Z,6.90
2023-05-13T06:51:32.894Z,6.70
2023-05-13T06:54:00.659Z,7.30
2023-05-13T06:56:28.321Z,4.80
2023-05-13T06:58:56.084Z,4.90
2023-05-13T07:01:23.909Z,4.10
2023-05-13T07:03:51.740Z,5.00
2023-05-13T07:06:19.684Z,5.00
2023-05-13T07:08:49.810Z,3.70
2023-05-13T07:11:17.467Z,5.30
2023-05-13T07:13:45.339Z,5.80
2023-05-13T07:16:12.996Z,4.20
2023-05-13T07:18:40.813Z,4.70
2023-05-13T07:21:08.696Z,6.60
2023-05-13T07:23:36.390Z,5.20
2023-05-13T07:26:04.257Z,7.20
2023-05-13T07:28:31.912Z,5.60
2023-05-13T07:30:59.718Z,6.30
2023-05-13T07:33:27.545Z,5.70
2023-05-13T07:35:55.216Z,4.60
2023-05-13T07:38:23.076Z,4.30
2023-05-13T07:40:50.844Z,5.20
2023-05-13T07:43:23.994Z,7.50
2023-05-13T07:45:52.002Z,5.00
2023-05-13T07:48:19.865Z,6.80
2023-05-13T07:50:47.530Z,7.20
2023-05-13T07:53:16.179Z,5.20
2023-05-13T07:55:45.414Z,5.30
2023-05-13T07:58:13.189Z,6.10
2023-05-13T08:00:40.970Z,4.30
2023-05-13T08:03:09.111Z,4.40
2023-05-13T08:05:37.390Z,5.20
2023-05-13T08:08:05.161Z,3.00
2023-05-13T08:10:32.823Z,4.90
2023-05-13T08:13:01.201Z,2.80
2023-05-13T08:15:28.962Z,4.10
2023-05-13T08:17:56.756Z,4.20
2023-05-13T08:20:30.087Z,3.30
2023-05-13T08:22:58.560Z,3.10
2023-05-13T08:25:26.581Z,5.30
2023-05-13T08:27:54.231Z,3.00
2023-05-13T08:30:22.000Z,3.90
2023-05-13T08:32:50.017Z,3.00
2023-05-13T08:35:18.142Z,5.70
2023-05-13T08:37:45.913Z,6.10
2023-05-13T08:40:13.770Z,6.40
2023-05-13T08:42:41.535Z,7.20
2023-05-13T08:45:09.924Z,3.30
2023-05-13T08:47:37.742Z,3.00
2023-05-13T08:50:05.753Z,5.30
2023-05-13T08:52:33.524Z,4.20
2023-05-13T08:55:01.486Z,3.70
2023-05-13T08:57:29.266Z,6.00
2023-05-13T08:59:56.909Z,5.40
2023-05-13T09:02:24.604Z,4.60
2023-05-13T09:04:52.365Z,6.70
2023-05-13T09:07:20.115Z,6.00
2023-05-13T09:09:47.869Z,6.80
2023-05-13T09:12:15.531Z,7.00
2023-05-13T09:14:43.294Z,4.70
2023-05-13T09:17:11.059Z,5.10
2023-05-13T09:19:38.833Z,4.10
2023-05-13T09:22:06.684Z,3.50
2023-05-13T09:24:34.473Z,3.20
2023-05-13T09:27:03.062Z,7.50
2023-05-13T09:29:30.805Z,8.70
2023-05-13T09:31:58.565Z,5.50
2023-05-13T09:34:26.426Z,3.60
2023-05-13T09:36:54.165Z,4.90
2023-05-13T09:39:21.855Z,2.80
2023-05-13T09:41:49.519Z,5.60
2023-05-13T09:44:17.286Z,3.80
2023-05-13T09:46:44.954Z,6.10
2023-05-13T09:49:12.601Z,4.30
2023-05-13T09:51:40.264Z,4.30
2023-05-13T09:54:08.037Z,4.50
2023-05-13T09:56:35.797Z,3.30
2023-05-13T09:59:03.579Z,3.60
2023-05-13T10:01:31.381Z,6.70
2023-05-13T10:03:59.883Z,2.50
2023-05-13T10:06:28.389Z,5.30
2023-05-13T10:08:56.461Z,6.00
2023-05-13T10:11:24.129Z,3.70
2023-05-13T10:13:51.888Z,3.20
2023-05-13T10:16:19.805Z,6.10
2023-05-13T10:18:48.045Z,3.20
2023-05-13T10:21:15.796Z,2.70
2023-05-13T10:23:43.567Z,4.90
2023-05-13T10:26:11.224Z,4.90
2023-05-13T10:28:39.102Z,2.90
2023-05-13T10:31:07.261Z,4.10
2023-05-13T10:33:34.861Z,5.70
2023-05-13T10:36:02.585Z,4.90
2023-05-13T10:38:30.256Z,4.50
2023-05-13T10:40:57.913Z,8.90
2023-05-13T10:43:26.388Z,2.20
2023-05-13T10:45:54.066Z,6.60
2023-05-13T10:48:22.015Z,3.50
2023-05-13T10:50:49.780Z,4.40
2023-05-13T10:53:17.445Z,5.60
2023-05-13T10:55:48.389Z,4.40
2023-05-13T10:58:16.379Z,7.60
2023-05-13T11:00:44.229Z,5.80
2023-05-13T11:03:12.093Z,3.80
2023-05-13T11:05:39.957Z,4.70
2023-05-13T11:08:07.717Z,2.40
2023-05-13T11:10:35.584Z,2.40
2023-05-13T11:13:03.245Z,2.40
2023-05-13T11:15:31.213Z,8.50
2023-05-13T11:17:58.905Z,5.20
2023-05-13T11:20:26.640Z,3.00
2023-05-13T11:22:54.309Z,4.00
2023-05-13T11:25:22.376Z,3.20
2023-05-13T11:27:52.391Z,3.60
2023-05-13T11:30:20.336Z,3.30
2023-05-13T11:32:48.279Z,6.10
2023-05-13T11:35:16.098Z,2.70
2023-05-13T11:37:44.066Z,4.20
2023-05-13T11:40:11.729Z,4.00
2023-05-13T11:42:39.495Z,5.80
2023-05-13T11:45:07.150Z,3.00
2023-05-13T11:47:34.848Z,4.50
2023-05-13T11:50:03.393Z,3.50
2023-05-13T11:52:31.261Z,3.70
2023-05-13T11:54:58.923Z,5.60
2023-05-13T11:57:26.796Z,2.80
2023-05-13T11:59:54.452Z,2.20
2023-05-13T12:02:22.396Z,4.20
2023-05-13T12:04:50.317Z,2.70
2023-05-13T12:07:18.052Z,3.80
2023-05-13T12:09:45.713Z,2.00
2023-05-13T12:12:13.487Z,2.20
2023-05-13T12:14:41.150Z,4.60
2023-05-13T12:17:08.907Z,3.40
2023-05-13T12:19:37.698Z,2.30
2023-05-13T12:22:05.649Z,2.90
2023-05-13T12:24:33.632Z,2.50
2023-05-13T12:27:01.297Z,3.00
2023-05-13T12:29:28.976Z,3.90
2023-05-13T12:31:57.078Z,3.80
2023-05-13T12:34:24.793Z,3.10
2023-05-13T12:36:53.035Z,2.80
2023-05-13T12:39:20.831Z,6.30
2023-05-13T12:41:48.597Z,2.20
2023-05-13T12:44:16.279Z,5.20
2023-05-13T12:46:44.076Z,3.90
2023-05-13T12:49:12.298Z,2.60
2023-05-13T12:51:40.279Z,2.60
2023-05-13T12:54:07.955Z,3.40
2023-05-13T12:56:35.600Z,2.40
2023-05-13T12:59:03.358Z,5.30
2023-05-13T13:01:31.196Z,5.00
2023-05-13T13:03:59.002Z,5.10
2023-05-13T13:06:26.956Z,4.10
2023-05-13T13:08:54.822Z,7.90
2023-05-13T13:11:22.486Z,3.90
2023-05-13T13:13:50.161Z,5.10
2023-05-13T13:16:17.997Z,6.30
2023-05-13T13:18:46.035Z,5.90
2023-05-13T13:21:13.853Z,10.90
2023-05-13T13:23:41.512Z,5.30
2023-05-13T13:26:09.584Z,2.70
2023-05-13T13:28:37.245Z,3.00
2023-05-13T13:31:05.323Z,3.00
2023-05-13T13:33:33.082Z,3.80
2023-05-13T13:36:00.858Z,4.90
2023-05-13T13:38:28.510Z,6.80
2023-05-13T13:40:56.169Z,4.80
2023-05-13T13:43:23.936Z,3.00
2023-05-13T13:45:51.622Z,3.80
2023-05-13T13:48:19.252Z,3.80
2023-05-13T13:50:48.036Z,2.90
2023-05-13T13:53:16.529Z,5.00
2023-05-13T13:55:44.320Z,3.80
2023-05-13T13:58:12.071Z,4.60
2023-05-13T14:00:39.793Z,3.10
2023-05-13T14:03:07.615Z,2.60
2023-05-13T14:05:35.448Z,4.40
2023-05-13T14:08:03.085Z,3.60
2023-05-13T14:10:30.881Z,7.30
2023-05-13T14:12:58.965Z,4.80
2023-05-13T14:15:28.988Z,4.40
2023-05-13T14:17:58.872Z,5.70
2023-05-13T14:20:29.114Z,8.30
2023-05-13T14:22:57.074Z,4.20
2023-05-13T14:25:24.851Z,3.20
2023-05-13T14:27:52.607Z,7.30
2023-05-13T14:30:20.497Z,5.40
2023-05-13T14:32:48.387Z,11.70
2023-05-13T14:35:17.225Z,8.50
2023-05-13T14:37:44.889Z,8.00
2023-05-13T14:40:12.550Z,11.30
2023-05-13T14:42:40.932Z,5.80
2023-05-13T14:45:09.773Z,5.30
2023-05-13T14:47:39.563Z,6.60
2023-05-13T14:50:07.491Z,4.10
2023-05-13T14:52:35.118Z,13.30
2023-05-13T14:55:02.821Z,13.80
2023-05-13T14:57:30.580Z,5.10
2023-05-13T14:59:59.907Z,34.90
2023-05-13T15:02:27.964Z,10.70
2023-05-13T15:04:55.818Z,9.00
2023-05-13T15:07:23.581Z,11.40
2023-05-13T15:09:51.348Z,5.40
2023-05-13T15:12:19.108Z,23.50
2023-05-13T15:14:46.770Z,18.20
2023-05-13T15:17:15.931Z,49.80
2023-05-13T15:19:45.165Z,32.60
2023-05-13T15:22:12.831Z,9.70
2023-05-13T15:24:42.034Z,6.20
2023-05-13T15:27:09.689Z,13.00
2023-05-13T15:29:37.354Z,11.70
2023-05-13T15:32:06.452Z,13.30
2023-05-13T15:34:34.218Z,15.70
2023-05-13T15:37:01.894Z,9.40
2023-05-13T15:39:29.642Z,8.50
2023-05-13T15:41:57.306Z,5.50
2023-05-13T15:44:25.065Z,5.60
2023-05-13T15:46:52.947Z,7.70
2023-05-13T15:49:20.903Z,4.10
2023-05-13T15:51:48.674Z,7.70
2023-05-13T15:54:16.331Z,4.90
2023-05-13T15:56:43.988Z,8.30
2023-05-13T15:59:11.754Z,9.20
2023-05-13T16:01:41.942Z,5.40
2023-05-13T16:04:09.887Z,3.70
2023-05-13T16:06:37.712Z,8.30
2023-05-13T16:09:05.373Z,4.90
2023-05-13T16:11:33.036Z,4.00
2023-05-13T16:14:00.948Z,3.60
2023-05-13T16:16:28.687Z,4.60
2023-05-13T16:18:56.595Z,5.70
2023-05-13T16:21:24.294Z,5.40
2023-05-13T16:23:52.056Z,5.10
2023-05-13T16:26:19.721Z,14.90
2023-05-13T16:28:47.390Z,13.40
2023-05-13T16:31:15.186Z,7.70
2023-05-13T16:33:43.014Z,6.90
2023-05-13T16:36:12.008Z,5.70
2023-05-13T16:38:41.739Z,4.60
2023-05-13T16:41:09.785Z,3.40
2023-05-13T16:43:37.433Z,4.70
2023-05-13T16:46:05.114Z,5.80
2023-05-13T16:48:32.947Z,4.60
2023-05-13T16:51:00.642Z,5.10
2023-05-13T16:53:28.404Z,3.50
2023-05-13T16:55:56.067Z,5.50
2023-05-13T16:58:24.037Z,5.10
2023-05-13T17:00:52.593Z,4.60
2023-05-13T17:03:20.695Z,5.50
2023-05-13T17:05:48.462Z,4.30
2023-05-13T17:08:19.102Z,6.00
2023-05-13T17:10:46.864Z,7.00
2023-05-13T17:13:14.617Z,5.30
2023-05-13T17:15:42.392Z,9.30
2023-05-13T17:18:10.186Z,9.40
2023-05-13T17:20:38.014Z,6.30
2023-05-13T17:23:05.977Z,9.70
2023-05-13T17:25:33.668Z,9.30
2023-05-13T17:28:01.410Z,9.10
2023-05-13T17:30:29.212Z,6.60
2023-05-13T17:32:56.924Z,10.80
2023-05-13T17:35:24.712Z,11.20
2023-05-13T17:37:52.463Z,7.60
2023-05-13T17:40:20.279Z,10.70
2023-05-13T17:42:48.198Z,9.20
2023-05-13T17:45:15.927Z,9.10
2023-05-13T17:47:43.672Z,8.50
2023-05-13T17:50:11.797Z,8.30
2023-05-13T17:52:40.501Z,10.40
2023-05-13T17:55:08.265Z,5.40
2023-05-13T17:57:45.541Z,7.40
2023-05-13T18:00:13.478Z,7.40
2023-05-13T18:02:41.922Z,7.40
2023-05-13T18:05:10.267Z,10.40
2023-05-13T18:07:38.644Z,6.40
2023-05-13T18:10:06.811Z,9.40
2023-05-13T18:12:34.678Z,9.90
2023-05-13T18:15:03.059Z,9.70
2023-05-13T18:17:31.180Z,8.90
2023-05-13T18:19:59.215Z,8.70
2023-05-13T18:22:27.378Z,7.80
2023-05-13T18:24:55.443Z,7.40
2023-05-13T18:27:23.211Z,8.70
2023-05-13T18:29:51.077Z,10.40
2023-05-13T18:32:18.750Z,9.40
2023-05-13T18:34:47.121Z,11.60
2023-05-13T18:37:15.770Z,18.70
2023-05-13T18:39:46.123Z,21.70
2023-05-13T18:42:14.403Z,22.20
2023-05-13T18:44:42.679Z,25.80
2023-05-13T18:47:11.672Z,30.80
2023-05-13T18:49:39.770Z,31.10
2023-05-13T18:52:07.821Z,32.20
2023-05-13T18:54:35.593Z,33.40
2023-05-13T18:57:03.282Z,36.30
2023-05-13T18:59:31.210Z,35.50
2023-05-13T19:01:58.964Z,25.10
2023-05-13T19:04:27.776Z,25.00
2023-05-13T19:06:56.246Z,28.50
2023-05-13T19:09:24.009Z,34.00
2023-05-13T19:11:51.777Z,30.70
2023-05-13T19:14:19.431Z,25.20
2023-05-13T19:16:47.346Z,25.90
2023-05-13T19:19:15.206Z,28.00
2023-05-13T19:21:43.048Z,23.40
2023-05-13T19:24:11.004Z,24.50
2023-05-13T19:26:38.882Z,26.50
2023-05-13T19:29:06.545Z,30.70
2023-05-13T19:31:34.397Z,23.60
2023-05-13T19:34:02.366Z,19.80
2023-05-13T19:36:30.439Z,21.10
2023-05-13T19:38:58.202Z,22.20
2023-05-13T19:41:26.275Z,21.10
2023-05-13T19:43:53.936Z,21.70
2023-05-13T19:46:21.823Z,24.60
2023-05-13T19:48:49.573Z,33.10
2023-05-13T19:51:18.255Z,31.40
2023-05-13T19:53:46.842Z,32.00
2023-05-13T19:56:14.806Z,32.40
2023-05-13T19:58:42.569Z,28.20
2023-05-13T20:01:12.080Z,25.80
2023-05-13T20:03:39.898Z,24.40
2023-05-13T20:06:08.014Z,26.60
2023-05-13T20:08:35.998Z,25.20
2023-05-13T20:11:03.746Z,20.90
2023-05-13T20:13:31.512Z,27.10
2023-05-13T20:15:59.176Z,22.40
2023-05-13T20:18:27.376Z,27.80
2023-05-13T20:20:55.113Z,27.40
2023-05-13T20:23:22.899Z,22.60
2023-05-13T20:25:50.643Z,25.10
2023-05-13T20:28:18.306Z,21.20
2023-05-13T20:30:46.179Z,20.20
2023-05-13T20:33:14.038Z,19.50
2023-05-13T20:35:42.515Z,18.80
2023-05-13T20:38:10.280Z,23.40
2023-05-13T20:40:37.962Z,17.90
2023-05-13T20:43:07.625Z,23.20
2023-05-13T20:45:39.506Z,19.10
2023-05-13T20:50:35.864Z,20.20
2023-05-13T20:53:03.521Z,68.80
2023-05-13T20:55:31.187Z,158.50
2023-05-13T20:57:58.851Z,187.10
2023-05-13T21:00:26.616Z,142.70
2023-05-13T21:02:54.367Z,147.70
2023-05-13T21:05:22.492Z,167.90
2023-05-13T21:07:50.335Z,159.00
2023-05-13T21:10:18.593Z,130.60
2023-05-13T21:12:48.469Z,104.00
2023-05-13T21:15:17.207Z,78.70
2023-05-13T21:17:46.643Z,47.80
2023-05-13T21:20:14.869Z,41.00
2023-05-13T21:22:43.052Z,41.90
2023-05-13T21:25:11.238Z,34.50
2023-05-13T21:27:39.807Z,30.80
2023-05-13T21:30:08.175Z,22.80
2023-05-13T21:32:36.926Z,26.80
2023-05-13T21:35:05.634Z,33.30
2023-05-13T21:37:33.925Z,33.60
2023-05-13T21:40:02.305Z,38.00
2023-05-13T21:42:30.591Z,59.70
2023-05-13T21:44:59.268Z,61.90
2023-05-13T21:47:29.788Z,70.60
2023-05-13T21:49:57.870Z,68.70
2023-05-13T21:52:26.183Z,61.90
2023-05-13T21:54:54.425Z,54.00
2023-05-13T21:57:22.694Z,50.10
2023-05-13T21:59:51.083Z,37.30
2023-05-13T22:02:19.511Z,34.70
2023-05-13T22:04:47.725Z,30.60
2023-05-13T22:07:15.903Z,32.30
2023-05-13T22:09:43.975Z,25.90
2023-05-13T22:12:12.046Z,29.60
2023-05-13T22:14:40.125Z,22.90
2023-05-13T22:17:09.764Z,21.70
2023-05-13T22:19:38.729Z,20.90
2023-05-13T22:22:07.965Z,18.90
2023-05-13T22:24:36.429Z,16.70
2023-05-13T22:27:04.613Z,19.10
2023-05-13T22:29:32.753Z,14.70
2023-05-13T22:32:01.149Z,15.30
2023-05-13T22:34:29.299Z,15.30
2023-05-13T22:36:57.855Z,16.20
2023-05-13T22:39:26.065Z,12.20
2023-05-13T22:41:57.561Z,16.30
2023-05-13T22:44:25.460Z,15.50
2023-05-13T22:46:54.785Z,17.00
2023-05-13T22:49:23.268Z,14.90
2023-05-13T22:51:51.440Z,17.30
2023-05-13T22:54:19.717Z,14.40
2023-05-13T22:56:47.889Z,15.00
2023-05-13T22:59:16.077Z,14.90
2023-05-13T23:01:44.505Z,13.10
2023-05-13T23:04:12.973Z,13.80
2023-05-13T23:06:41.191Z,13.90
2023-05-13T23:09:10.702Z,16.60
2023-05-13T23:11:39.080Z,16.90
2023-05-13T23:14:07.799Z,20.80
2023-05-13T23:16:36.688Z,24.30
2023-05-13T23:19:04.791Z,31.60
2023-05-13T23:21:32.898Z,29.20
2023-05-13T23:24:00.976Z,29.40
2023-05-13T23:26:29.052Z,24.50
2023-05-13T23:28:57.223Z,20.50
2023-05-13T23:31:25.542Z,19.90
2023-05-13T23:33:53.562Z,63.20
2023-05-13T23:36:21.634Z,69.00
2023-05-13T23:38:51.039Z,50.90
2023-05-13T23:41:19.117Z,60.40
2023-05-13T23:43:47.294Z,113.20
2023-05-13T23:46:15.696Z,110.70
2023-05-13T23:48:43.730Z,59.80
2023-05-13T23:51:11.910Z,45.50
2023-05-13T23:53:39.977Z,54.60
2023-05-13T23:56:08.054Z,49.50
2023-05-13T23:58:36.147Z,52.10
